createdAt,value
2022-12-03T00:01:41.771Z,3.60
2022-12-03T00:04:45.419Z,3.60
2022-12-03T00:07:51.120Z,3.60
2022-12-03T00:10:54.877Z,3.60
2022-12-03T00:13:58.623Z,3.60
2022-12-03T00:17:02.352Z,3.60
2022-12-03T00:20:07.483Z,3.70
2022-12-03T00:23:13.104Z,3.70
2022-12-03T00:26:16.807Z,3.70
2022-12-03T00:29:20.511Z,3.70
2022-12-03T00:32:24.188Z,3.70
2022-12-03T00:35:28.114Z,3.70
2022-12-03T00:38:33.793Z,3.70
2022-12-03T00:41:38.126Z,3.70
2022-12-03T00:44:41.836Z,3.70
2022-12-03T00:47:46.514Z,3.70
2022-12-03T00:50:50.215Z,3.70
2022-12-03T00:53:56.419Z,3.70
2022-12-03T00:57:00.205Z,3.70
2022-12-03T01:00:03.641Z,3.70
2022-12-03T01:03:07.403Z,3.70
2022-12-03T01:06:11.028Z,3.70
2022-12-03T01:09:16.583Z,3.70
2022-12-03T01:12:20.339Z,3.70
2022-12-03T01:15:23.985Z,3.70
2022-12-03T01:18:27.787Z,3.70
2022-12-03T01:21:31.517Z,3.70
2022-12-03T01:24:37.137Z,3.70
2022-12-03T01:27:40.837Z,3.70
2022-12-03T01:30:57.502Z,3.70
2022-12-03T01:34:01.173Z,3.70
2022-12-03T01:37:05.213Z,3.70
2022-12-03T01:40:17.201Z,3.70
2022-12-03T01:43:20.892Z,3.80
2022-12-03T01:46:27.957Z,3.70
2022-12-03T01:49:34.891Z,3.80
2022-12-03T01:52:40.684Z,3.80
2022-12-03T01:55:48.745Z,3.80
2022-12-03T01:58:52.929Z,3.80
2022-12-03T02:01:56.571Z,3.80
2022-12-03T02:05:00.892Z,3.80
2022-12-03T02:08:31.350Z,3.80
2022-12-03T02:11:40.534Z,3.80
2022-12-03T02:14:44.369Z,3.80
2022-12-03T02:17:48.312Z,3.80
2022-12-03T02:21:02.321Z,3.80
2022-12-03T02:24:09.595Z,3.80
2022-12-03T02:27:15.247Z,3.80
2022-12-03T02:30:21.492Z,3.80
2022-12-03T02:33:25.322Z,3.80
2022-12-03T02:36:29.085Z,3.80
2022-12-03T02:39:34.141Z,3.80
2022-12-03T02:42:40.328Z,3.80
2022-12-03T02:45:47.686Z,3.80
2022-12-03T02:48:51.612Z,3.80
2022-12-03T02:51:55.428Z,3.80
2022-12-03T02:54:58.958Z,3.80
2022-12-03T02:58:05.555Z,3.80
2022-12-03T03:01:10.649Z,3.80
2022-12-03T03:04:17.315Z,3.80
2022-12-03T03:07:21.099Z,3.80
2022-12-03T03:10:26.018Z,3.80
2022-12-03T03:13:32.802Z,3.80
2022-12-03T03:16:37.072Z,3.80
2022-12-03T03:19:40.898Z,3.80
2022-12-03T03:22:44.995Z,3.80
2022-12-03T03:25:51.604Z,3.80
2022-12-03T03:29:02.497Z,3.70
2022-12-03T03:32:07.021Z,3.70
2022-12-03T03:35:14.104Z,3.70
2022-12-03T03:38:19.817Z,3.70
2022-12-03T03:41:23.968Z,3.70
2022-12-03T03:44:30.140Z,3.70
2022-12-03T03:47:34.265Z,3.70
2022-12-03T03:50:38.340Z,3.70
2022-12-03T03:53:44.410Z,3.70
2022-12-03T03:56:48.075Z,3.70
2022-12-03T03:59:53.757Z,3.70
2022-12-03T04:02:57.734Z,3.70
2022-12-03T04:06:01.590Z,3.60
2022-12-03T04:09:05.220Z,3.60
2022-12-03T04:12:22.364Z,3.60
2022-12-03T04:15:28.239Z,3.60
2022-12-03T04:18:44.118Z,3.60
2022-12-03T04:22:00.988Z,3.60
2022-12-03T04:25:17.941Z,3.70
2022-12-03T04:28:34.773Z,3.70
2022-12-03T04:31:53.961Z,3.60
2022-12-03T04:35:10.854Z,3.60
2022-12-03T04:38:16.497Z,3.70
2022-12-03T04:41:20.420Z,3.60
2022-12-03T04:44:37.137Z,3.60
2022-12-03T04:47:42.832Z,3.60
2022-12-03T04:50:46.636Z,3.60
2022-12-03T04:53:50.332Z,3.60
2022-12-03T04:56:54.211Z,3.60
2022-12-03T04:59:57.711Z,3.60
2022-12-03T05:03:03.410Z,3.50
2022-12-03T05:06:07.622Z,3.50
2022-12-03T05:09:11.836Z,3.60
2022-12-03T05:12:15.597Z,3.50
2022-12-03T05:15:19.307Z,3.50
2022-12-03T05:18:24.970Z,3.50
2022-12-03T05:21:28.676Z,3.50
2022-12-03T05:24:32.164Z,3.50
2022-12-03T05:27:35.883Z,3.50
2022-12-03T05:30:39.614Z,3.40
2022-12-03T05:33:45.031Z,3.40
2022-12-03T05:36:48.676Z,3.40
2022-12-03T05:39:52.359Z,3.40
2022-12-03T05:42:56.374Z,3.30
2022-12-03T05:46:00.119Z,3.40
2022-12-03T05:49:08.774Z,3.40
2022-12-03T05:52:12.440Z,3.30
2022-12-03T05:55:16.185Z,3.30
2022-12-03T05:58:19.858Z,3.30
2022-12-03T06:01:23.555Z,3.30
2022-12-03T06:04:30.754Z,3.30
2022-12-03T06:07:34.933Z,3.30
2022-12-03T06:10:38.478Z,3.30
2022-12-03T06:13:42.170Z,3.30
2022-12-03T06:16:45.707Z,3.30
2022-12-03T06:19:51.340Z,3.30
2022-12-03T06:22:55.056Z,3.30
2022-12-03T06:25:59.021Z,3.30
2022-12-03T06:29:02.760Z,3.30
2022-12-03T06:32:06.359Z,3.30
2022-12-03T06:35:12.120Z,3.20
2022-12-03T06:38:15.920Z,3.20
2022-12-03T06:41:19.370Z,3.20
2022-12-03T06:44:23.094Z,3.10
2022-12-03T06:47:26.841Z,3.10
2022-12-03T06:50:32.459Z,3.10
2022-12-03T06:53:36.262Z,3.10
2022-12-03T06:56:45.097Z,3.00
2022-12-03T06:59:49.469Z,3.00
2022-12-03T07:02:53.155Z,3.00
2022-12-03T07:05:58.584Z,3.00
2022-12-03T07:09:02.230Z,3.00
2022-12-03T07:12:06.469Z,2.90
2022-12-03T07:15:11.133Z,2.90
2022-12-03T07:18:15.097Z,2.90
2022-12-03T07:21:20.791Z,2.90
2022-12-03T07:24:24.506Z,2.80
2022-12-03T07:27:28.192Z,2.80
2022-12-03T07:30:31.950Z,2.80
2022-12-03T07:33:35.675Z,2.80
2022-12-03T07:36:41.085Z,2.70
2022-12-03T07:39:44.762Z,2.70
2022-12-03T07:42:48.239Z,2.70
2022-12-03T07:45:52.187Z,2.70
2022-12-03T07:48:55.968Z,2.70
2022-12-03T07:52:01.311Z,2.70
2022-12-03T07:55:05.375Z,2.70
2022-12-03T07:58:09.045Z,2.70
2022-12-03T08:01:12.808Z,2.60
2022-12-03T08:04:18.324Z,2.60
2022-12-03T08:07:23.980Z,2.60
2022-12-03T08:10:27.804Z,2.60
2022-12-03T08:13:31.298Z,2.60
2022-12-03T08:16:40.318Z,2.60
2022-12-03T08:19:48.112Z,2.60
2022-12-03T08:22:54.781Z,2.60
2022-12-03T08:26:01.551Z,2.70
2022-12-03T08:29:11.335Z,2.60
2022-12-03T08:32:15.361Z,2.60
2022-12-03T08:35:23.569Z,2.60
2022-12-03T08:38:31.451Z,2.70
2022-12-03T08:42:02.079Z,2.70
2022-12-03T08:45:41.095Z,2.60
2022-12-03T08:48:49.146Z,2.70
2022-12-03T08:51:58.464Z,2.70
2022-12-03T08:55:30.139Z,2.70
2022-12-03T08:58:41.143Z,2.70
2022-12-03T09:01:46.920Z,2.60
2022-12-03T09:04:52.523Z,2.60
2022-12-03T09:07:56.653Z,2.60
2022-12-03T09:11:02.314Z,2.60
2022-12-03T09:14:06.857Z,2.60
2022-12-03T09:17:10.687Z,2.60
2022-12-03T09:20:14.593Z,2.60
2022-12-03T09:23:18.345Z,2.60
2022-12-03T09:26:23.726Z,2.50
2022-12-03T09:29:27.454Z,2.50
2022-12-03T09:32:30.947Z,2.50
2022-12-03T09:35:34.702Z,2.40
2022-12-03T09:38:43.112Z,2.40
2022-12-03T09:41:51.971Z,2.40
2022-12-03T09:44:56.460Z,2.40
2022-12-03T09:48:03.437Z,2.40
2022-12-03T09:51:07.598Z,2.40
2022-12-03T09:54:16.861Z,2.40
2022-12-03T09:57:22.732Z,2.40
2022-12-03T10:00:28.724Z,2.40
2022-12-03T10:03:33.962Z,2.40
2022-12-03T10:06:43.932Z,2.40
2022-12-03T10:09:49.493Z,2.30
2022-12-03T10:12:55.951Z,2.30
2022-12-03T10:16:02.132Z,2.30
2022-12-03T10:19:05.913Z,2.30
2022-12-03T10:22:09.489Z,2.30
2022-12-03T10:25:15.762Z,2.30
2022-12-03T10:28:32.283Z,2.20
2022-12-03T10:31:37.871Z,2.20
2022-12-03T10:34:45.122Z,2.20
2022-12-03T10:38:00.048Z,2.20
2022-12-03T10:41:22.249Z,2.20
2022-12-03T10:44:30.007Z,2.20
2022-12-03T10:47:33.937Z,2.20
2022-12-03T10:50:38.688Z,2.20
2022-12-03T10:53:42.949Z,2.20
2022-12-03T10:56:48.240Z,2.20
2022-12-03T10:59:53.969Z,2.20
2022-12-03T11:02:58.007Z,2.20
2022-12-03T11:06:03.248Z,2.20
2022-12-03T11:09:14.695Z,2.20
2022-12-03T11:12:22.263Z,2.20
2022-12-03T11:15:45.206Z,2.20
2022-12-03T11:19:03.066Z,2.20
2022-12-03T11:22:34.643Z,2.20
2022-12-03T11:25:49.911Z,2.20
2022-12-03T11:28:55.413Z,2.20
2022-12-03T11:32:02.564Z,2.20
2022-12-03T11:35:06.924Z,2.20
2022-12-03T11:38:48.889Z,2.20
2022-12-03T11:42:26.372Z,2.20
2022-12-03T11:45:33.465Z,2.30
2022-12-03T11:48:45.816Z,2.30
2022-12-03T11:51:50.344Z,2.40
2022-12-03T11:54:57.665Z,2.40
2022-12-03T11:58:02.921Z,2.40
2022-12-03T12:01:09.120Z,2.40
2022-12-03T12:04:37.304Z,2.40
2022-12-03T12:07:41.313Z,2.50
2022-12-03T12:10:48.117Z,2.50
2022-12-03T12:13:54.867Z,2.50
2022-12-03T12:17:02.627Z,2.50
2022-12-03T12:20:26.872Z,2.50
2022-12-03T12:23:30.487Z,2.50
2022-12-03T12:26:34.175Z,2.50
2022-12-03T12:29:39.980Z,2.50
2022-12-03T12:32:47.546Z,2.50
2022-12-03T12:35:53.149Z,2.40
2022-12-03T12:38:58.082Z,2.40
2022-12-03T12:42:01.572Z,2.50
2022-12-03T12:45:16.731Z,2.40
2022-12-03T12:48:25.385Z,2.50
2022-12-03T12:51:31.064Z,2.50
2022-12-03T12:54:35.066Z,2.50
2022-12-03T12:57:38.939Z,2.40
2022-12-03T13:00:42.525Z,2.40
2022-12-03T13:03:46.357Z,2.40
2022-12-03T13:06:54.642Z,2.40
2022-12-03T13:09:59.025Z,2.40
2022-12-03T13:13:17.379Z,2.40
2022-12-03T13:16:24.642Z,2.40
2022-12-03T13:19:29.880Z,2.40
2022-12-03T13:22:35.782Z,2.40
2022-12-03T13:29:08.204Z,2.40
2022-12-03T13:32:15.851Z,2.40
2022-12-03T13:35:30.568Z,2.40
2022-12-03T13:38:36.301Z,2.30
2022-12-03T13:41:53.217Z,2.30
2022-12-03T13:44:58.828Z,2.30
2022-12-03T13:48:05.880Z,2.30
2022-12-03T13:51:22.686Z,2.30
2022-12-03T13:54:31.769Z,2.30
2022-12-03T13:57:35.688Z,2.30
2022-12-03T14:00:39.489Z,2.30
2022-12-03T14:03:43.601Z,2.30
2022-12-03T14:06:47.637Z,2.30
2022-12-03T14:09:53.563Z,2.30
2022-12-03T14:12:57.962Z,2.30
2022-12-03T14:16:01.787Z,2.30
2022-12-03T14:19:06.118Z,2.20
2022-12-03T14:22:09.958Z,2.20
2022-12-03T14:25:15.718Z,2.10
2022-12-03T14:28:19.517Z,2.10
2022-12-03T14:31:23.081Z,2.10
2022-12-03T14:34:26.886Z,2.10
2022-12-03T14:37:30.638Z,2.10
2022-12-03T14:40:36.436Z,2.10
2022-12-03T14:43:55.330Z,2.00
2022-12-03T14:46:58.915Z,2.00
2022-12-03T14:50:04.511Z,2.00
2022-12-03T14:53:08.249Z,1.90
2022-12-03T14:56:13.756Z,1.90
2022-12-03T14:59:17.551Z,2.00
2022-12-03T15:02:21.125Z,2.00
2022-12-03T15:05:28.769Z,1.90
2022-12-03T15:08:32.948Z,1.90
2022-12-03T15:11:42.975Z,1.90
2022-12-03T15:14:49.836Z,1.90
2022-12-03T15:17:53.309Z,1.90
2022-12-03T15:20:57.013Z,1.90
2022-12-03T15:24:00.842Z,1.90
2022-12-03T15:27:06.500Z,1.80
2022-12-03T15:30:11.360Z,1.80
2022-12-03T15:33:17.246Z,1.80
2022-12-03T15:36:21.328Z,1.80
2022-12-03T15:39:25.135Z,1.80
2022-12-03T15:42:30.905Z,1.80
2022-12-03T15:45:34.791Z,1.80
2022-12-03T15:48:38.629Z,1.80
2022-12-03T15:51:42.420Z,1.80
2022-12-03T15:54:48.900Z,1.80
2022-12-03T15:57:54.609Z,1.80
2022-12-03T16:00:58.353Z,1.80
2022-12-03T16:04:01.863Z,1.80
2022-12-03T16:07:06.567Z,1.90
2022-12-03T16:10:12.573Z,1.80
2022-12-03T16:13:18.246Z,1.80
2022-12-03T16:16:22.055Z,1.80
2022-12-03T16:19:25.932Z,1.80
2022-12-03T16:22:29.626Z,1.80
2022-12-03T16:25:33.094Z,1.80
2022-12-03T16:28:38.724Z,1.70
2022-12-03T16:31:42.513Z,1.80
2022-12-03T16:34:46.328Z,1.80
2022-12-03T16:37:50.177Z,1.80
2022-12-03T16:40:53.720Z,1.80
2022-12-03T16:44:01.585Z,1.80
2022-12-03T16:47:05.469Z,1.80
2022-12-03T16:50:16.464Z,1.80
2022-12-03T16:53:24.951Z,1.70
2022-12-03T16:56:28.694Z,1.70
2022-12-03T16:59:34.093Z,1.70
2022-12-03T17:02:37.896Z,1.70
2022-12-03T17:05:41.926Z,1.70
2022-12-03T17:08:49.388Z,1.70
2022-12-03T17:11:54.804Z,1.70
2022-12-03T17:15:00.611Z,1.60
2022-12-03T17:18:04.958Z,1.70
2022-12-03T17:21:08.665Z,1.60
2022-12-03T17:24:12.156Z,1.70
2022-12-03T17:27:16.482Z,1.70
2022-12-03T17:30:22.563Z,1.70
2022-12-03T17:33:26.288Z,1.70
2022-12-03T17:36:29.890Z,1.70
2022-12-03T17:39:33.578Z,1.70
2022-12-03T17:42:37.386Z,1.70
2022-12-03T17:45:43.744Z,1.70
2022-12-03T17:48:47.829Z,1.70
2022-12-03T17:51:51.538Z,1.70
2022-12-03T17:55:10.906Z,1.60
2022-12-03T17:58:16.736Z,1.70
2022-12-03T18:01:22.213Z,1.60
2022-12-03T18:04:26.154Z,1.60
2022-12-03T18:07:29.975Z,1.60
2022-12-03T18:10:33.476Z,1.60
2022-12-03T18:13:37.275Z,1.60
2022-12-03T18:16:42.841Z,1.60
2022-12-03T18:19:46.636Z,1.60
2022-12-03T18:22:50.191Z,1.60
2022-12-03T18:25:56.597Z,1.60
2022-12-03T18:29:00.366Z,1.60
2022-12-03T18:32:12.135Z,1.60
2022-12-03T18:35:29.984Z,1.60
2022-12-03T18:38:35.497Z,1.60
2022-12-03T18:41:39.234Z,1.60
2022-12-03T18:44:47.877Z,1.50
2022-12-03T18:47:55.267Z,1.50
2022-12-03T18:50:59.047Z,1.50
2022-12-03T18:54:02.514Z,1.50
2022-12-03T18:57:06.258Z,1.50
2022-12-03T19:00:13.649Z,1.50
2022-12-03T19:03:19.783Z,1.50
2022-12-03T19:06:23.512Z,1.50
2022-12-03T19:09:27.143Z,1.50
2022-12-03T19:12:31.255Z,1.50
2022-12-03T19:15:39.777Z,1.50
2022-12-03T19:18:45.533Z,1.50
2022-12-03T19:21:49.323Z,1.50
2022-12-03T19:24:52.992Z,1.40
2022-12-03T19:27:56.747Z,1.50
2022-12-03T19:31:01.605Z,1.50
2022-12-03T19:34:07.620Z,1.40
2022-12-03T19:37:11.448Z,1.50
2022-12-03T19:40:16.322Z,1.50
2022-12-03T19:43:20.008Z,1.50
2022-12-03T19:46:24.299Z,1.50
2022-12-03T19:49:29.774Z,1.50
2022-12-03T19:52:36.707Z,1.50
2022-12-03T19:55:40.427Z,1.50
2022-12-03T19:58:46.167Z,1.50
2022-12-03T20:01:50.078Z,1.50
2022-12-03T20:04:55.879Z,1.50
2022-12-03T20:07:59.691Z,1.50
2022-12-03T20:11:09.552Z,1.50
2022-12-03T20:14:15.322Z,1.50
2022-12-03T20:17:19.118Z,1.50
2022-12-03T20:20:24.988Z,1.50
2022-12-03T20:23:29.619Z,1.50
2022-12-03T20:26:33.868Z,1.50
2022-12-03T20:29:37.598Z,1.50
2022-12-03T20:32:45.303Z,1.50
2022-12-03T20:35:55.400Z,1.50
2022-12-03T20:39:00.912Z,1.50
2022-12-03T20:42:04.886Z,1.50
2022-12-03T20:45:10.048Z,1.50
2022-12-03T20:48:13.892Z,1.50
2022-12-03T20:51:21.594Z,1.50
2022-12-03T20:54:28.078Z,1.50
2022-12-03T20:57:31.987Z,1.50
2022-12-03T21:00:35.696Z,1.60
2022-12-03T21:03:39.182Z,1.60
2022-12-03T21:06:45.266Z,1.50
2022-12-03T21:09:48.976Z,1.50
2022-12-03T21:12:52.473Z,1.50
2022-12-03T21:16:05.389Z,1.50
2022-12-03T21:19:09.770Z,1.50
2022-12-03T21:22:15.364Z,1.50
2022-12-03T21:25:19.180Z,1.50
2022-12-03T21:28:23.395Z,1.50
2022-12-03T21:31:30.880Z,1.60
2022-12-03T21:34:36.516Z,1.60
2022-12-03T21:37:42.374Z,1.60
2022-12-03T21:40:46.080Z,1.60
2022-12-03T21:43:49.533Z,1.60
2022-12-03T21:47:12.407Z,1.60
2022-12-03T21:50:16.935Z,1.60
2022-12-03T21:53:22.268Z,1.60
2022-12-03T21:56:26.021Z,1.60
2022-12-03T21:59:29.673Z,1.60
2022-12-03T22:02:33.757Z,1.60
2022-12-03T22:05:39.421Z,1.60
2022-12-03T22:08:48.132Z,1.60
2022-12-03T22:11:54.284Z,1.60
2022-12-03T22:14:58.030Z,1.60
2022-12-03T22:18:01.500Z,1.60
2022-12-03T22:21:06.709Z,1.60
2022-12-03T22:24:12.386Z,1.60
2022-12-03T22:27:16.337Z,1.60
2022-12-03T22:30:20.204Z,1.60
2022-12-03T22:33:24.292Z,1.60
2022-12-03T22:36:27.960Z,1.60
2022-12-03T22:39:33.570Z,1.60
2022-12-03T22:42:37.358Z,1.60
2022-12-03T22:45:41.124Z,1.60
2022-12-03T22:48:45.194Z,1.60
2022-12-03T22:51:49.036Z,1.60
2022-12-03T22:54:54.837Z,1.60
2022-12-03T22:57:58.548Z,1.60
2022-12-03T23:01:03.215Z,1.60
2022-12-03T23:04:08.298Z,1.60
2022-12-03T23:07:12.073Z,1.60
2022-12-03T23:10:17.592Z,1.60
2022-12-03T23:13:21.841Z,1.60
2022-12-03T23:16:29.056Z,1.60
2022-12-03T23:19:32.846Z,1.60
2022-12-03T23:22:36.369Z,1.60
2022-12-03T23:25:42.430Z,1.60
2022-12-03T23:28:47.571Z,1.60
2022-12-03T23:31:51.249Z,1.60
2022-12-03T23:34:54.849Z,1.60
2022-12-03T23:37:58.610Z,1.60
2022-12-03T23:41:06.623Z,1.60
2022-12-03T23:44:10.376Z,1.60
2022-12-03T23:47:13.832Z,1.60
2022-12-03T23:50:17.681Z,1.60
2022-12-03T23:53:21.450Z,1.60
2022-12-03T23:56:28.465Z,1.60
2022-12-03T23:59:32.367Z,1.60
